sensor_id;sensor_type;location;lat;lon;timestamp;P1;durP1;ratioP1;P2;durP2;ratioP2
3225;SDS011;1625;49.884;8.666;2023-03-01T00:01:41;10.20;;;7.90;;
3225;SDS011;1625;49.884;8.666;2023-03-01T00:04:06;11.80;;;8.60;;
3225;SDS011;1625;49.884;8.666;2023-03-01T00:06:35;10.53;;;8.07;;
3225;SDS011;1625;49.884;8.666;2023-03-01T00:09:01;9.57;;;8.20;;
3225;SDS011;1625;49.884;8.666;2023-03-01T00:11:27;9.93;;;8.20;;
3225;SDS011;1625;49.884;8.666;2023-03-01T00:13:56;10.00;;;9.00;;
3225;SDS011;1625;49.884;8.666;2023-03-01T00:16:24;9.50;;;7.77;;
3225;SDS011;1625;49.884;8.666;2023-03-01T00:18:51;10.70;;;8.97;;
3225;SDS011;1625;49.884;8.666;2023-03-01T00:21:17;12.20;;;8.40;;
3225;SDS011;1625;49.884;8.666;2023-03-01T00:23:44;11.60;;;8.20;;
3225;SDS011;1625;49.884;8.666;2023-03-01T00:26:11;8.97;;;8.07;;
3225;SDS011;1625;49.884;8.666;2023-03-01T00:28:38;10.50;;;7.37;;
3225;SDS011;1625;49.884;8.666;2023-03-01T00:31:04;9.63;;;8.70;;
3225;SDS011;1625;49.884;8.666;2023-03-01T00:33:31;10.73;;;8.37;;
3225;SDS011;1625;49.884;8.666;2023-03-01T00:35:58;10.20;;;9.20;;
3225;SDS011;1625;49.884;8.666;2023-03-01T00:38:23;11.77;;;9.40;;
3225;SDS011;1625;49.884;8.666;2023-03-01T00:40:49;8.50;;;7.60;;
3225;SDS011;1625;49.884;8.666;2023-03-01T00:43:15;10.80;;;8.73;;
3225;SDS011;1625;49.884;8.666;2023-03-01T00:45:41;10.03;;;8.47;;
3225;SDS011;1625;49.884;8.666;2023-03-01T00:48:06;12.40;;;9.00;;
3225;SDS011;1625;49.884;8.666;2023-03-01T00:50:32;10.40;;;8.07;;
3225;SDS011;1625;49.884;8.666;2023-03-01T00:52:57;9.67;;;8.57;;
3225;SDS011;1625;49.884;8.666;2023-03-01T00:55:23;9.27;;;8.10;;
3225;SDS011;1625;49.884;8.666;2023-03-01T00:57:49;10.30;;;8.13;;
3225;SDS011;1625;49.884;8.666;2023-03-01T01:00:15;9.87;;;8.30;;
3225;SDS011;1625;49.884;8.666;2023-03-01T01:02:41;11.20;;;9.77;;
3225;SDS011;1625;49.884;8.666;2023-03-01T01:05:07;8.87;;;7.90;;
3225;SDS011;1625;49.884;8.666;2023-03-01T01:07:33;12.30;;;9.20;;
3225;SDS011;1625;49.884;8.666;2023-03-01T01:09:58;11.17;;;7.67;;
3225;SDS011;1625;49.884;8.666;2023-03-01T01:12:24;10.47;;;8.90;;
3225;SDS011;1625;49.884;8.666;2023-03-01T01:14:49;12.07;;;9.23;;
3225;SDS011;1625;49.884;8.666;2023-03-01T01:17:15;13.87;;;9.83;;
3225;SDS011;1625;49.884;8.666;2023-03-01T01:19:40;10.67;;;8.70;;
3225;SDS011;1625;49.884;8.666;2023-03-01T01:22:06;11.33;;;9.30;;
3225;SDS011;1625;49.884;8.666;2023-03-01T01:24:32;8.80;;;7.90;;
3225;SDS011;1625;49.884;8.666;2023-03-01T01:26:57;11.07;;;8.73;;
3225;SDS011;1625;49.884;8.666;2023-03-01T01:29:23;11.93;;;8.10;;
3225;SDS011;1625;49.884;8.666;2023-03-01T01:31:48;8.03;;;7.23;;
3225;SDS011;1625;49.884;8.666;2023-03-01T01:34:15;11.53;;;9.53;;
3225;SDS011;1625;49.884;8.666;2023-03-01T01:36:43;10.20;;;8.37;;
3225;SDS011;1625;49.884;8.666;2023-03-01T01:39:09;9.97;;;8.50;;
3225;SDS011;1625;49.884;8.666;2023-03-01T01:41:39;13.87;;;8.87;;
3225;SDS011;1625;49.884;8.666;2023-03-01T01:44:14;12.37;;;9.83;;
3225;SDS011;1625;49.884;8.666;2023-03-01T01:46:41;13.70;;;9.10;;
3225;SDS011;1625;49.884;8.666;2023-03-01T01:49:27;9.70;;;7.90;;
3225;SDS011;1625;49.884;8.666;2023-03-01T01:52:02;10.20;;;9.07;;
3225;SDS011;1625;49.884;8.666;2023-03-01T01:57:07;10.40;;;8.87;;
3225;SDS011;1625;49.884;8.666;2023-03-01T01:59:37;11.67;;;9.23;;
3225;SDS011;1625;49.884;8.666;2023-03-01T02:02:03;11.27;;;9.70;;
3225;SDS011;1625;49.884;8.666;2023-03-01T02:04:30;10.53;;;7.77;;
3225;SDS011;1625;49.884;8.666;2023-03-01T02:07:01;10.47;;;9.37;;
3225;SDS011;1625;49.884;8.666;2023-03-01T02:09:32;10.87;;;9.30;;
3225;SDS011;1625;49.884;8.666;2023-03-01T02:11:58;9.80;;;8.50;;
3225;SDS011;1625;49.884;8.666;2023-03-01T02:14:24;10.53;;;8.90;;
3225;SDS011;1625;49.884;8.666;2023-03-01T02:16:51;13.43;;;8.93;;
3225;SDS011;1625;49.884;8.666;2023-03-01T02:19:25;11.90;;;8.43;;
3225;SDS011;1625;49.884;8.666;2023-03-01T02:30:29;12.07;;;9.17;;
3225;SDS011;1625;49.884;8.666;2023-03-01T02:32:56;9.60;;;8.57;;
3225;SDS011;1625;49.884;8.666;2023-03-01T02:35:27;11.87;;;8.40;;
3225;SDS011;1625;49.884;8.666;2023-03-01T02:37:57;12.50;;;9.03;;
3225;SDS011;1625;49.884;8.666;2023-03-01T02:40:25;12.53;;;9.00;;
3225;SDS011;1625;49.884;8.666;2023-03-01T02:42:53;11.60;;;9.00;;
3225;SDS011;1625;49.884;8.666;2023-03-01T02:45:21;15.50;;;10.47;;
3225;SDS011;1625;49.884;8.666;2023-03-01T02:47:53;12.90;;;8.73;;
3225;SDS011;1625;49.884;8.666;2023-03-01T02:53:01;12.17;;;9.50;;
3225;SDS011;1625;49.884;8.666;2023-03-01T02:55:40;13.03;;;9.70;;
3225;SDS011;1625;49.884;8.666;2023-03-01T02:58:05;9.70;;;8.37;;
3225;SDS011;1625;49.884;8.666;2023-03-01T03:00:39;12.43;;;9.40;;
3225;SDS011;1625;49.884;8.666;2023-03-01T03:03:10;13.53;;;9.50;;
3225;SDS011;1625;49.884;8.666;2023-03-01T03:05:38;12.83;;;10.33;;
3225;SDS011;1625;49.884;8.666;2023-03-01T03:08:04;10.27;;;8.50;;
3225;SDS011;1625;49.884;8.666;2023-03-01T03:10:33;11.87;;;9.40;;
3225;SDS011;1625;49.884;8.666;2023-03-01T03:13:01;10.97;;;8.73;;
3225;SDS011;1625;49.884;8.666;2023-03-01T03:15:32;11.17;;;9.00;;
3225;SDS011;1625;49.884;8.666;2023-03-01T03:18:01;9.53;;;7.73;;
3225;SDS011;1625;49.884;8.666;2023-03-01T03:20:27;12.00;;;8.90;;
3225;SDS011;1625;49.884;8.666;2023-03-01T03:22:54;10.50;;;8.10;;
3225;SDS011;1625;49.884;8.666;2023-03-01T03:25:21;11.30;;;7.80;;
3225;SDS011;1625;49.884;8.666;2023-03-01T03:27:48;10.30;;;8.03;;
3225;SDS011;1625;49.884;8.666;2023-03-01T03:30:16;12.30;;;8.50;;
3225;SDS011;1625;49.884;8.666;2023-03-01T03:32:44;11.40;;;9.07;;
3225;SDS011;1625;49.884;8.666;2023-03-01T03:35:18;13.70;;;9.87;;
3225;SDS011;1625;49.884;8.666;2023-03-01T03:37:54;15.33;;;10.10;;
3225;SDS011;1625;49.884;8.666;2023-03-01T03:40:27;10.70;;;9.60;;
3225;SDS011;1625;49.884;8.666;2023-03-01T03:42:54;10.63;;;9.50;;
3225;SDS011;1625;49.884;8.666;2023-03-01T03:45:20;13.57;;;9.87;;
3225;SDS011;1625;49.884;8.666;2023-03-01T03:47:46;11.50;;;9.13;;
3225;SDS011;1625;49.884;8.666;2023-03-01T03:50:13;13.00;;;9.63;;
3225;SDS011;1625;49.884;8.666;2023-03-01T03:52:40;11.77;;;9.53;;
3225;SDS011;1625;49.884;8.666;2023-03-01T03:55:06;10.77;;;9.40;;
3225;SDS011;1625;49.884;8.666;2023-03-01T03:57:36;17.37;;;11.70;;
3225;SDS011;1625;49.884;8.666;2023-03-01T04:00:06;13.33;;;9.60;;
3225;SDS011;1625;49.884;8.666;2023-03-01T04:02:44;12.07;;;9.63;;
3225;SDS011;1625;49.884;8.666;2023-03-01T04:05:11;13.60;;;10.40;;
3225;SDS011;1625;49.884;8.666;2023-03-01T04:07:42;13.20;;;9.37;;
3225;SDS011;1625;49.884;8.666;2023-03-01T04:10:12;15.17;;;10.40;;
3225;SDS011;1625;49.884;8.666;2023-03-01T04:12:45;12.97;;;9.90;;
3225;SDS011;1625;49.884;8.666;2023-03-01T04:15:11;12.77;;;8.87;;
3225;SDS011;1625;49.884;8.666;2023-03-01T04:20:06;12.53;;;9.97;;
3225;SDS011;1625;49.884;8.666;2023-03-01T04:22:36;13.30;;;11.00;;
3225;SDS011;1625;49.884;8.666;2023-03-01T04:25:02;12.53;;;9.40;;
3225;SDS011;1625;49.884;8.666;2023-03-01T04:27:29;11.80;;;9.33;;
3225;SDS011;1625;49.884;8.666;2023-03-01T04:29:58;16.90;;;11.20;;
3225;SDS011;1625;49.884;8.666;2023-03-01T04:32:24;13.03;;;10.20;;
3225;SDS011;1625;49.884;8.666;2023-03-01T04:34:49;12.00;;;9.80;;
3225;SDS011;1625;49.884;8.666;2023-03-01T04:37:14;12.47;;;9.67;;
3225;SDS011;1625;49.884;8.666;2023-03-01T04:39:40;13.87;;;10.20;;
3225;SDS011;1625;49.884;8.666;2023-03-01T04:42:10;13.67;;;9.30;;
3225;SDS011;1625;49.884;8.666;2023-03-01T04:44:36;12.67;;;10.30;;
3225;SDS011;1625;49.884;8.666;2023-03-01T04:47:02;15.53;;;9.73;;
3225;SDS011;1625;49.884;8.666;2023-03-01T04:49:28;12.57;;;10.87;;
3225;SDS011;1625;49.884;8.666;2023-03-01T04:51:54;15.17;;;10.23;;
3225;SDS011;1625;49.884;8.666;2023-03-01T04:54:21;12.63;;;9.40;;
3225;SDS011;1625;49.884;8.666;2023-03-01T04:56:46;12.70;;;9.70;;
3225;SDS011;1625;49.884;8.666;2023-03-01T04:59:11;11.30;;;9.80;;
3225;SDS011;1625;49.884;8.666;2023-03-01T05:01:37;14.17;;;10.17;;
3225;SDS011;1625;49.884;8.666;2023-03-01T05:04:03;13.33;;;10.70;;
3225;SDS011;1625;49.884;8.666;2023-03-01T05:06:30;13.53;;;9.17;;
3225;SDS011;1625;49.884;8.666;2023-03-01T05:08:56;14.20;;;10.00;;
3225;SDS011;1625;49.884;8.666;2023-03-01T05:11:22;15.30;;;10.40;;
3225;SDS011;1625;49.884;8.666;2023-03-01T05:13:47;14.70;;;10.30;;
3225;SDS011;1625;49.884;8.666;2023-03-01T05:16:14;13.37;;;10.20;;
3225;SDS011;1625;49.884;8.666;2023-03-01T05:18:41;12.87;;;10.03;;
3225;SDS011;1625;49.884;8.666;2023-03-01T05:21:09;13.80;;;10.30;;
3225;SDS011;1625;49.884;8.666;2023-03-01T05:23:37;12.63;;;9.83;;
3225;SDS011;1625;49.884;8.666;2023-03-01T05:26:03;14.80;;;10.87;;
3225;SDS011;1625;49.884;8.666;2023-03-01T05:28:37;17.17;;;12.30;;
3225;SDS011;1625;49.884;8.666;2023-03-01T05:31:04;13.27;;;10.97;;
3225;SDS011;1625;49.884;8.666;2023-03-01T05:33:35;15.50;;;11.13;;
3225;SDS011;1625;49.884;8.666;2023-03-01T05:36:05;12.70;;;9.60;;
3225;SDS011;1625;49.884;8.666;2023-03-01T05:38:37;14.73;;;10.03;;
3225;SDS011;1625;49.884;8.666;2023-03-01T05:41:02;12.43;;;9.83;;
3225;SDS011;1625;49.884;8.666;2023-03-01T05:43:30;11.70;;;9.03;;
3225;SDS011;1625;49.884;8.666;2023-03-01T05:45:58;13.73;;;10.27;;
3225;SDS011;1625;49.884;8.666;2023-03-01T05:48:24;15.47;;;10.17;;
3225;SDS011;1625;49.884;8.666;2023-03-01T05:50:51;13.67;;;10.00;;
3225;SDS011;1625;49.884;8.666;2023-03-01T06:55:37;17.80;;;16.10;;
3225;SDS011;1625;49.884;8.666;2023-03-01T07:22:45;18.00;;;16.20;;
3225;SDS011;1625;49.884;8.666;2023-03-01T07:25:11;13.73;;;10.87;;
3225;SDS011;1625;49.884;8.666;2023-03-01T07:27:36;13.30;;;11.80;;
3225;SDS011;1625;49.884;8.666;2023-03-01T07:30:02;14.03;;;11.37;;
3225;SDS011;1625;49.884;8.666;2023-03-01T07:32:28;11.70;;;9.80;;
3225;SDS011;1625;49.884;8.666;2023-03-01T07:34:54;11.97;;;9.90;;
3225;SDS011;1625;49.884;8.666;2023-03-01T07:37:19;16.10;;;10.67;;
3225;SDS011;1625;49.884;8.666;2023-03-01T07:39:45;12.70;;;10.17;;
3225;SDS011;1625;49.884;8.666;2023-03-01T07:42:10;12.63;;;9.73;;
3225;SDS011;1625;49.884;8.666;2023-03-01T07:44:36;11.53;;;9.60;;
3225;SDS011;1625;49.884;8.666;2023-03-01T07:47:02;15.03;;;10.87;;
3225;SDS011;1625;49.884;8.666;2023-03-01T07:49:28;15.40;;;10.43;;
3225;SDS011;1625;49.884;8.666;2023-03-01T07:51:53;13.10;;;9.20;;
3225;SDS011;1625;49.884;8.666;2023-03-01T07:54:20;13.80;;;10.23;;
3225;SDS011;1625;49.884;8.666;2023-03-01T07:56:45;11.77;;;9.77;;
3225;SDS011;1625;49.884;8.666;2023-03-01T07:59:12;13.47;;;10.17;;
3225;SDS011;1625;49.884;8.666;2023-03-01T08:01:38;17.47;;;11.83;;
3225;SDS011;1625;49.884;8.666;2023-03-01T08:04:03;10.67;;;9.53;;
3225;SDS011;1625;49.884;8.666;2023-03-01T08:06:33;17.30;;;10.80;;
3225;SDS011;1625;49.884;8.666;2023-03-01T08:08:59;11.40;;;9.37;;
3225;SDS011;1625;49.884;8.666;2023-03-01T08:11:27;13.80;;;10.17;;
3225;SDS011;1625;49.884;8.666;2023-03-01T08:13:55;13.53;;;10.10;;
3225;SDS011;1625;49.884;8.666;2023-03-01T08:16:22;15.63;;;10.40;;
3225;SDS011;1625;49.884;8.666;2023-03-01T08:18:48;12.70;;;9.23;;
3225;SDS011;1625;49.884;8.666;2023-03-01T08:21:14;18.63;;;10.50;;
3225;SDS011;1625;49.884;8.666;2023-03-01T08:23:41;12.60;;;10.80;;
3225;SDS011;1625;49.884;8.666;2023-03-01T08:28:39;14.03;;;9.57;;
3225;SDS011;1625;49.884;8.666;2023-03-01T08:31:20;19.13;;;10.40;;
3225;SDS011;1625;49.884;8.666;2023-03-01T08:33:55;14.43;;;10.60;;
3225;SDS011;1625;49.884;8.666;2023-03-01T08:36:23;13.83;;;9.73;;
3225;SDS011;1625;49.884;8.666;2023-03-01T08:38:50;12.83;;;10.40;;
3225;SDS011;1625;49.884;8.666;2023-03-01T08:41:18;15.73;;;9.27;;
3225;SDS011;1625;49.884;8.666;2023-03-01T08:43:44;13.23;;;10.47;;
3225;SDS011;1625;49.884;8.666;2023-03-01T08:46:11;13.77;;;10.40;;
3225;SDS011;1625;49.884;8.666;2023-03-01T08:48:38;14.03;;;8.97;;
3225;SDS011;1625;49.884;8.666;2023-03-01T08:51:08;14.37;;;10.83;;
3225;SDS011;1625;49.884;8.666;2023-03-01T08:53:35;13.20;;;8.30;;
3225;SDS011;1625;49.884;8.666;2023-03-01T08:56:01;9.63;;;7.63;;
3225;SDS011;1625;49.884;8.666;2023-03-01T08:58:29;14.73;;;10.40;;
3225;SDS011;1625;49.884;8.666;2023-03-01T09:01:00;17.53;;;11.00;;
3225;SDS011;1625;49.884;8.666;2023-03-01T09:03:25;13.83;;;10.20;;
3225;SDS011;1625;49.884;8.666;2023-03-01T09:05:52;12.43;;;8.77;;
3225;SDS011;1625;49.884;8.666;2023-03-01T09:08:18;15.23;;;10.57;;
3225;SDS011;1625;49.884;8.666;2023-03-01T09:10:50;16.30;;;10.07;;
3225;SDS011;1625;49.884;8.666;2023-03-01T09:13:16;14.03;;;10.23;;
3225;SDS011;1625;49.884;8.666;2023-03-01T09:15:42;15.77;;;11.10;;
3225;SDS011;1625;49.884;8.666;2023-03-01T09:18:07;13.23;;;9.60;;
3225;SDS011;1625;49.884;8.666;2023-03-01T09:20:33;16.00;;;10.53;;
3225;SDS011;1625;49.884;8.666;2023-03-01T09:23:00;14.57;;;11.03;;
3225;SDS011;1625;49.884;8.666;2023-03-01T09:25:26;14.60;;;10.13;;
3225;SDS011;1625;49.884;8.666;2023-03-01T09:27:52;16.50;;;10.40;;
3225;SDS011;1625;49.884;8.666;2023-03-01T09:30:18;14.97;;;10.60;;
3225;SDS011;1625;49.884;8.666;2023-03-01T09:32:44;13.30;;;11.43;;
3225;SDS011;1625;49.884;8.666;2023-03-01T09:35:11;14.40;;;10.23;;
3225;SDS011;1625;49.884;8.666;2023-03-01T09:37:37;11.87;;;9.10;;
3225;SDS011;1625;49.884;8.666;2023-03-01T09:40:04;15.57;;;11.83;;
3225;SDS011;1625;49.884;8.666;2023-03-01T09:42:35;13.77;;;8.37;;
3225;SDS011;1625;49.884;8.666;2023-03-01T09:45:15;14.37;;;10.67;;
3225;SDS011;1625;49.884;8.666;2023-03-01T09:47:54;12.20;;;10.10;;
3225;SDS011;1625;49.884;8.666;2023-03-01T09:50:21;14.13;;;10.87;;
3225;SDS011;1625;49.884;8.666;2023-03-01T09:55:17;14.57;;;11.20;;
3225;SDS011;1625;49.884;8.666;2023-03-01T09:57:55;13.53;;;8.57;;
3225;SDS011;1625;49.884;8.666;2023-03-01T10:00:26;13.50;;;10.20;;
3225;SDS011;1625;49.884;8.666;2023-03-01T10:08:41;15.40;;;11.30;;
3225;SDS011;1625;49.884;8.666;2023-03-01T10:11:22;15.60;;;11.00;;
3225;SDS011;1625;49.884;8.666;2023-03-01T10:13:57;16.80;;;11.33;;
3225;SDS011;1625;49.884;8.666;2023-03-01T10:27:04;16.53;;;10.77;;
3225;SDS011;1625;49.884;8.666;2023-03-01T10:51:07;15.73;;;13.23;;
3225;SDS011;1625;49.884;8.666;2023-03-01T11:00:46;14.30;;;12.10;;
3225;SDS011;1625;49.884;8.666;2023-03-01T11:11:34;13.60;;;9.80;;
3225;SDS011;1625;49.884;8.666;2023-03-01T12:48:50;12.83;;;10.63;;
3225;SDS011;1625;49.884;8.666;2023-03-01T12:55:24;11.90;;;10.77;;
3225;SDS011;1625;49.884;8.666;2023-03-01T13:13:01;13.37;;;12.07;;
3225;SDS011;1625;49.884;8.666;2023-03-01T13:25:32;11.40;;;9.70;;
3225;SDS011;1625;49.884;8.666;2023-03-01T13:28:51;12.70;;;10.93;;
3225;SDS011;1625;49.884;8.666;2023-03-01T13:37:26;14.60;;;10.20;;
3225;SDS011;1625;49.884;8.666;2023-03-01T13:46:17;12.83;;;10.80;;
3225;SDS011;1625;49.884;8.666;2023-03-01T13:48:47;12.40;;;10.97;;
3225;SDS011;1625;49.884;8.666;2023-03-01T13:51:16;11.20;;;9.90;;
3225;SDS011;1625;49.884;8.666;2023-03-01T13:54:29;12.13;;;10.83;;
3225;SDS011;1625;49.884;8.666;2023-03-01T13:59:48;11.73;;;10.60;;
3225;SDS011;1625;49.884;8.666;2023-03-01T14:08:40;11.97;;;10.70;;
3225;SDS011;1625;49.884;8.666;2023-03-01T14:21:33;11.57;;;10.10;;
3225;SDS011;1625;49.884;8.666;2023-03-01T14:24:23;10.97;;;9.87;;
3225;SDS011;1625;49.884;8.666;2023-03-01T14:26:49;10.73;;;9.63;;
3225;SDS011;1625;49.884;8.666;2023-03-01T14:29:33;11.13;;;9.90;;
3225;SDS011;1625;49.884;8.666;2023-03-01T14:32:20;11.57;;;10.53;;
3225;SDS011;1625;49.884;8.666;2023-03-01T14:34:49;14.03;;;10.90;;
3225;SDS011;1625;49.884;8.666;2023-03-01T14:37:24;12.00;;;10.97;;
3225;SDS011;1625;49.884;8.666;2023-03-01T14:39:51;11.20;;;10.13;;
3225;SDS011;1625;49.884;8.666;2023-03-01T14:45:16;11.63;;;10.53;;
3225;SDS011;1625;49.884;8.666;2023-03-01T15:32:33;13.37;;;12.10;;
3225;SDS011;1625;49.884;8.666;2023-03-01T15:35:50;11.83;;;10.73;;
3225;SDS011;1625;49.884;8.666;2023-03-01T16:03:07;11.60;;;10.50;;
3225;SDS011;1625;49.884;8.666;2023-03-01T16:06:13;12.30;;;11.10;;
3225;SDS011;1625;49.884;8.666;2023-03-01T16:08:43;11.80;;;10.70;;
3225;SDS011;1625;49.884;8.666;2023-03-01T16:11:10;11.83;;;10.63;;
3225;SDS011;1625;49.884;8.666;2023-03-01T16:13:42;11.80;;;10.73;;
3225;SDS011;1625;49.884;8.666;2023-03-01T16:16:09;13.10;;;11.83;;
3225;SDS011;1625;49.884;8.666;2023-03-01T16:18:37;13.17;;;11.87;;
3225;SDS011;1625;49.884;8.666;2023-03-01T16:21:03;12.77;;;11.60;;
3225;SDS011;1625;49.884;8.666;2023-03-01T16:23:30;12.70;;;11.60;;
3225;SDS011;1625;49.884;8.666;2023-03-01T16:25:58;12.87;;;11.60;;
3225;SDS011;1625;49.884;8.666;2023-03-01T16:28:25;13.20;;;11.87;;
3225;SDS011;1625;49.884;8.666;2023-03-01T16:30:51;14.27;;;12.43;;
3225;SDS011;1625;49.884;8.666;2023-03-01T16:33:17;13.00;;;11.80;;
3225;SDS011;1625;49.884;8.666;2023-03-01T16:35:45;12.97;;;11.70;;
3225;SDS011;1625;49.884;8.666;2023-03-01T16:38:11;12.37;;;11.27;;
3225;SDS011;1625;49.884;8.666;2023-03-01T16:40:36;13.97;;;12.57;;
3225;SDS011;1625;49.884;8.666;2023-03-01T16:43:05;12.43;;;11.33;;
3225;SDS011;1625;49.884;8.666;2023-03-01T16:45:40;13.90;;;12.50;;
3225;SDS011;1625;49.884;8.666;2023-03-01T16:48:09;13.03;;;11.83;;
3225;SDS011;1625;49.884;8.666;2023-03-01T16:50:35;14.33;;;13.03;;
3225;SDS011;1625;49.884;8.666;2023-03-01T16:53:04;15.93;;;13.30;;
3225;SDS011;1625;49.884;8.666;2023-03-01T16:55:30;12.50;;;11.30;;
3225;SDS011;1625;49.884;8.666;2023-03-01T16:57:56;13.37;;;12.07;;
3225;SDS011;1625;49.884;8.666;2023-03-01T17:00:21;12.67;;;11.37;;
3225;SDS011;1625;49.884;8.666;2023-03-01T17:05:42;14.03;;;11.73;;
3225;SDS011;1625;49.884;8.666;2023-03-01T17:08:08;13.60;;;11.53;;
3225;SDS011;1625;49.884;8.666;2023-03-01T17:10:37;13.60;;;11.90;;
3225;SDS011;1625;49.884;8.666;2023-03-01T17:13:16;12.17;;;10.90;;
3225;SDS011;1625;49.884;8.666;2023-03-01T17:15:41;14.43;;;12.93;;
3225;SDS011;1625;49.884;8.666;2023-03-01T17:18:08;14.13;;;12.70;;
3225;SDS011;1625;49.884;8.666;2023-03-01T17:20:34;13.53;;;12.13;;
3225;SDS011;1625;49.884;8.666;2023-03-01T17:23:03;14.10;;;12.27;;
3225;SDS011;1625;49.884;8.666;2023-03-01T17:25:30;15.20;;;12.30;;
3225;SDS011;1625;49.884;8.666;2023-03-01T17:27:55;14.87;;;13.37;;
3225;SDS011;1625;49.884;8.666;2023-03-01T17:30:21;13.77;;;12.17;;
3225;SDS011;1625;49.884;8.666;2023-03-01T17:32:46;14.37;;;12.83;;
3225;SDS011;1625;49.884;8.666;2023-03-01T17:35:13;14.57;;;13.17;;
3225;SDS011;1625;49.884;8.666;2023-03-01T17:40:36;14.33;;;12.73;;
3225;SDS011;1625;49.884;8.666;2023-03-01T17:43:03;13.20;;;11.80;;
3225;SDS011;1625;49.884;8.666;2023-03-01T17:48:02;13.03;;;11.73;;
3225;SDS011;1625;49.884;8.666;2023-03-01T17:56:24;12.73;;;10.40;;
3225;SDS011;1625;49.884;8.666;2023-03-01T17:58:49;12.70;;;10.90;;
3225;SDS011;1625;49.884;8.666;2023-03-01T18:01:19;12.33;;;11.03;;
3225;SDS011;1625;49.884;8.666;2023-03-01T18:06:46;13.77;;;11.30;;
3225;SDS011;1625;49.884;8.666;2023-03-01T18:09:11;11.80;;;10.00;;
3225;SDS011;1625;49.884;8.666;2023-03-01T18:11:39;10.60;;;9.50;;
3225;SDS011;1625;49.884;8.666;2023-03-01T18:14:40;13.60;;;10.70;;
3225;SDS011;1625;49.884;8.666;2023-03-01T18:17:06;14.70;;;11.27;;
3225;SDS011;1625;49.884;8.666;2023-03-01T18:19:35;12.80;;;10.40;;
3225;SDS011;1625;49.884;8.666;2023-03-01T18:22:06;12.00;;;10.63;;
3225;SDS011;1625;49.884;8.666;2023-03-01T18:24:32;12.50;;;11.00;;
3225;SDS011;1625;49.884;8.666;2023-03-01T18:26:58;13.27;;;11.40;;
3225;SDS011;1625;49.884;8.666;2023-03-01T18:29:24;17.97;;;12.53;;
3225;SDS011;1625;49.884;8.666;2023-03-01T18:31:50;13.80;;;10.60;;
3225;SDS011;1625;49.884;8.666;2023-03-01T18:34:17;15.23;;;9.90;;
3225;SDS011;1625;49.884;8.666;2023-03-01T18:36:57;15.00;;;10.70;;
3225;SDS011;1625;49.884;8.666;2023-03-01T18:39:42;13.90;;;11.60;;
3225;SDS011;1625;49.884;8.666;2023-03-01T18:42:08;10.53;;;8.77;;
3225;SDS011;1625;49.884;8.666;2023-03-01T18:44:34;12.03;;;9.67;;
3225;SDS011;1625;49.884;8.666;2023-03-01T18:47:00;14.03;;;9.90;;
3225;SDS011;1625;49.884;8.666;2023-03-01T18:49:26;13.00;;;11.10;;
3225;SDS011;1625;49.884;8.666;2023-03-01T18:51:54;12.17;;;10.27;;
3225;SDS011;1625;49.884;8.666;2023-03-01T18:54:50;12.87;;;9.70;;
3225;SDS011;1625;49.884;8.666;2023-03-01T18:58:05;13.10;;;9.40;;
3225;SDS011;1625;49.884;8.666;2023-03-01T19:01:30;12.50;;;10.50;;
3225;SDS011;1625;49.884;8.666;2023-03-01T19:03:59;12.13;;;10.10;;
3225;SDS011;1625;49.884;8.666;2023-03-01T19:06:27;12.43;;;10.83;;
3225;SDS011;1625;49.884;8.666;2023-03-01T19:08:55;13.30;;;11.53;;
3225;SDS011;1625;49.884;8.666;2023-03-01T19:11:21;12.63;;;9.67;;
3225;SDS011;1625;49.884;8.666;2023-03-01T19:13:51;14.37;;;10.53;;
3225;SDS011;1625;49.884;8.666;2023-03-01T19:16:19;11.73;;;9.87;;
3225;SDS011;1625;49.884;8.666;2023-03-01T19:18:46;15.20;;;11.43;;
3225;SDS011;1625;49.884;8.666;2023-03-01T19:21:14;13.27;;;10.80;;
3225;SDS011;1625;49.884;8.666;2023-03-01T19:23:41;12.97;;;10.13;;
3225;SDS011;1625;49.884;8.666;2023-03-01T19:26:07;13.30;;;10.10;;
3225;SDS011;1625;49.884;8.666;2023-03-01T19:28:39;14.67;;;9.13;;
3225;SDS011;1625;49.884;8.666;2023-03-01T19:31:06;13.67;;;10.90;;
3225;SDS011;1625;49.884;8.666;2023-03-01T19:33:33;13.87;;;9.63;;
3225;SDS011;1625;49.884;8.666;2023-03-01T19:36:00;13.60;;;10.87;;
3225;SDS011;1625;49.884;8.666;2023-03-01T19:38:27;14.03;;;10.57;;
3225;SDS011;1625;49.884;8.666;2023-03-01T19:41:03;10.47;;;8.73;;
3225;SDS011;1625;49.884;8.666;2023-03-01T19:43:31;11.93;;;8.73;;
3225;SDS011;1625;49.884;8.666;2023-03-01T19:45:57;10.97;;;9.77;;
3225;SDS011;1625;49.884;8.666;2023-03-01T19:48:24;13.53;;;10.20;;
3225;SDS011;1625;49.884;8.666;2023-03-01T19:50:51;16.00;;;9.80;;
3225;SDS011;1625;49.884;8.666;2023-03-01T20:24:36;13.70;;;10.50;;
3225;SDS011;1625;49.884;8.666;2023-03-01T20:27:10;10.23;;;9.13;;
3225;SDS011;1625;49.884;8.666;2023-03-01T20:29:36;14.40;;;10.63;;
3225;SDS011;1625;49.884;8.666;2023-03-01T20:32:02;11.30;;;9.70;;
3225;SDS011;1625;49.884;8.666;2023-03-01T20:34:28;13.20;;;9.43;;
3225;SDS011;1625;49.884;8.666;2023-03-01T20:42:06;13.20;;;10.30;;
3225;SDS011;1625;49.884;8.666;2023-03-01T20:44:32;14.17;;;11.30;;
3225;SDS011;1625;49.884;8.666;2023-03-01T20:46:58;12.03;;;10.73;;
3225;SDS011;1625;49.884;8.666;2023-03-01T20:49:24;12.67;;;9.47;;
3225;SDS011;1625;49.884;8.666;2023-03-01T20:51:50;13.73;;;10.90;;
3225;SDS011;1625;49.884;8.666;2023-03-01T20:54:16;13.10;;;10.80;;
3225;SDS011;1625;49.884;8.666;2023-03-01T20:56:41;14.30;;;10.80;;
3225;SDS011;1625;49.884;8.666;2023-03-01T20:59:08;11.77;;;10.30;;
3225;SDS011;1625;49.884;8.666;2023-03-01T21:01:36;13.67;;;10.60;;
3225;SDS011;1625;49.884;8.666;2023-03-01T21:04:02;15.10;;;11.20;;
3225;SDS011;1625;49.884;8.666;2023-03-01T21:06:28;13.97;;;10.37;;
3225;SDS011;1625;49.884;8.666;2023-03-01T21:08:56;13.00;;;11.00;;
3225;SDS011;1625;49.884;8.666;2023-03-01T21:11:22;15.37;;;11.63;;
3225;SDS011;1625;49.884;8.666;2023-03-01T21:28:08;14.10;;;11.40;;
3225;SDS011;1625;49.884;8.666;2023-03-01T21:31:12;16.40;;;12.00;;
3225;SDS011;1625;49.884;8.666;2023-03-01T21:33:44;13.33;;;11.20;;
3225;SDS011;1625;49.884;8.666;2023-03-01T21:36:13;13.60;;;10.40;;
3225;SDS011;1625;49.884;8.666;2023-03-01T21:38:46;13.23;;;11.70;;
3225;SDS011;1625;49.884;8.666;2023-03-01T21:45:10;12.73;;;11.00;;
3225;SDS011;1625;49.884;8.666;2023-03-01T21:52:08;15.73;;;11.03;;
3225;SDS011;1625;49.884;8.666;2023-03-01T21:55:53;13.20;;;11.13;;
3225;SDS011;1625;49.884;8.666;2023-03-01T21:58:23;13.70;;;11.57;;
3225;SDS011;1625;49.884;8.666;2023-03-01T22:04:40;16.53;;;11.37;;
3225;SDS011;1625;49.884;8.666;2023-03-01T22:14:48;13.50;;;10.77;;
3225;SDS011;1625;49.884;8.666;2023-03-01T22:17:14;13.63;;;10.50;;
3225;SDS011;1625;49.884;8.666;2023-03-01T22:19:40;14.20;;;10.60;;
3225;SDS011;1625;49.884;8.666;2023-03-01T22:22:07;14.07;;;11.07;;
3225;SDS011;1625;49.884;8.666;2023-03-01T22:24:32;18.03;;;12.83;;
3225;SDS011;1625;49.884;8.666;2023-03-01T22:26:59;15.30;;;11.93;;
3225;SDS011;1625;49.884;8.666;2023-03-01T22:29:25;15.63;;;12.40;;
3225;SDS011;1625;49.884;8.666;2023-03-01T22:31:53;15.00;;;11.67;;
3225;SDS011;1625;49.884;8.666;2023-03-01T22:34:28;14.93;;;11.00;;
3225;SDS011;1625;49.884;8.666;2023-03-01T22:36:59;14.70;;;11.03;;
3225;SDS011;1625;49.884;8.666;2023-03-01T22:39:45;14.23;;;11.30;;
3225;SDS011;1625;49.884;8.666;2023-03-01T22:42:11;14.17;;;11.60;;
3225;SDS011;1625;49.884;8.666;2023-03-01T22:44:37;14.00;;;12.20;;
3225;SDS011;1625;49.884;8.666;2023-03-01T22:47:03;14.33;;;11.30;;
3225;SDS011;1625;49.884;8.666;2023-03-01T22:49:34;13.50;;;11.03;;
3225;SDS011;1625;49.884;8.666;2023-03-01T22:52:00;14.90;;;11.90;;
3225;SDS011;1625;49.884;8.666;2023-03-01T22:54:26;15.40;;;11.90;;
3225;SDS011;1625;49.884;8.666;2023-03-01T22:56:52;13.70;;;10.90;;
3225;SDS011;1625;49.884;8.666;2023-03-01T22:59:19;14.90;;;12.00;;
3225;SDS011;1625;49.884;8.666;2023-03-01T23:01:47;15.40;;;12.47;;
3225;SDS011;1625;49.884;8.666;2023-03-01T23:04:14;16.50;;;12.40;;